Time;durP1;ratioP1;P1;durP2;ratioP2;P2;SDS_P1;SDS_P2;PMS_P1;PMS_P2;Temp;Humidity;BMP_temperature;BMP_pressure;BME280_temperature;BME280_humidity;BME280_pressure;Samples;Min_cycle;Max_cycle;Signal;HPM_P1;HPM_P2
2022/03/17 00:01:18;;;;;;;51.75;27.48;;;;;;;;;;5056878;28;20186;-70
2022/03/17 00:03:43;;;;;;;65.18;28.23;;;;;;;;;;5059871;28;20025;-70
2022/03/17 00:06:11;;;;;;;84.30;26.95;;;;;;;;;;5051468;28;20024;-70
2022/03/17 00:08:36;;;;;;;42.85;24.70;;;;;;;;;;5049327;28;20021;-68
2022/03/17 00:11:01;;;;;;;39.13;23.27;;;;;;;;;;5053204;28;20419;-70
2022/03/17 00:13:27;;;;;;;52.78;25.02;;;;;;;;;;5049010;28;20029;-70
2022/03/17 00:15:52;;;;;;;52.20;25.65;;;;;;;;;;5049549;28;20037;-69
2022/03/17 00:18:18;;;;;;;53.25;25.92;;;;;;;;;;5055863;28;20029;-70
2022/03/17 00:20:43;;;;;;;42.17;24.13;;;;;;;;;;5052077;28;20032;-70
2022/03/17 00:23:08;;;;;;;45.65;24.52;;;;;;;;;;5048487;28;20025;-70
2022/03/17 00:25:34;;;;;;;99.90;24.10;;;;;;;;;;5049070;28;20033;-70
2022/03/17 00:27:59;;;;;;;43.00;25.15;;;;;;;;;;5061317;28;20021;-68
2022/03/17 00:30:25;;;;;;;58.00;27.45;;;;;;;;;;5051309;28;22325;-69
2022/03/17 00:32:51;;;;;;;55.10;27.48;;;;;;;;;;5048942;28;20025;-70
2022/03/17 00:38:00;;;;;;;61.17;26.58;;;;;;;;;;5057160;28;20029;-72
2022/03/17 00:40:26;;;;;;;52.45;28.05;;;;;;;;;;5055402;28;20037;-71
2022/03/17 00:42:51;;;;;;;104.68;30.23;;;;;;;;;;5057425;28;20024;-71
2022/03/17 00:45:17;;;;;;;53.05;27.02;;;;;;;;;;5041915;28;20028;-71
2022/03/17 00:47:42;;;;;;;50.42;27.17;;;;;;;;;;5056172;28;20104;-71
2022/03/17 00:50:08;;;;;;;49.85;26.83;;;;;;;;;;5052664;28;20024;-71
2022/03/17 00:52:33;;;;;;;83.05;28.02;;;;;;;;;;5047130;28;20034;-71
2022/03/17 00:54:58;;;;;;;49.45;26.30;;;;;;;;;;5057267;28;20452;-70
2022/03/17 00:57:24;;;;;;;43.70;24.52;;;;;;;;;;5059620;28;20087;-70
2022/03/17 00:59:49;;;;;;;44.90;26.23;;;;;;;;;;5053239;28;20029;-70
2022/03/17 01:02:15;;;;;;;48.85;26.05;;;;;;;;;;5050743;28;20055;-70
2022/03/17 01:04:40;;;;;;;47.83;24.95;;;;;;;;;;5060033;28;20104;-70
2022/03/17 01:07:05;;;;;;;45.78;25.80;;;;;;;;;;5056359;28;20103;-70
2022/03/17 01:09:31;;;;;;;42.85;24.90;;;;;;;;;;5060093;28;20439;-70
2022/03/17 01:11:57;;;;;;;65.85;25.52;;;;;;;;;;5054062;28;20024;-70
2022/03/17 01:14:22;;;;;;;65.85;24.00;;;;;;;;;;5056437;28;20025;-69
2022/03/17 01:16:48;;;;;;;49.25;25.17;;;;;;;;;;5055449;28;20025;-70
2022/03/17 01:19:13;;;;;;;47.63;26.65;;;;;;;;;;5061047;28;20034;-70
2022/03/17 01:21:38;;;;;;;52.80;27.20;;;;;;;;;;5054301;28;20402;-69
2022/03/17 01:24:04;;;;;;;49.63;26.23;;;;;;;;;;5056274;28;20024;-70
2022/03/17 01:26:30;;;;;;;49.80;26.80;;;;;;;;;;5052783;28;20116;-70
2022/03/17 01:28:55;;;;;;;47.72;26.13;;;;;;;;;;5051998;28;20055;-68
2022/03/17 01:31:24;;;;;;;60.00;27.90;;;;;;;;;;5052555;28;20037;-71
2022/03/17 01:33:49;;;;;;;62.45;31.63;;;;;;;;;;5055146;28;20696;-70
2022/03/17 01:36:14;;;;;;;46.60;26.83;;;;;;;;;;5058906;28;20033;-70
2022/03/17 01:38:40;;;;;;;50.17;27.42;;;;;;;;;;5056146;28;20023;-69
2022/03/17 01:41:05;;;;;;;49.83;27.35;;;;;;;;;;5060628;28;20035;-71
2022/03/17 01:43:30;;;;;;;53.97;26.92;;;;;;;;;;5058990;28;20017;-70
2022/03/17 01:45:56;;;;;;;48.70;25.60;;;;;;;;;;5052612;28;20075;-70
2022/03/17 01:48:21;;;;;;;53.85;28.40;;;;;;;;;;5057375;28;20036;-70
2022/03/17 01:50:48;;;;;;;51.35;28.58;;;;;;;;;;5054973;28;20036;-70
2022/03/17 01:53:14;;;;;;;54.70;29.13;;;;;;;;;;5053261;28;20017;-70
2022/03/17 01:55:39;;;;;;;57.25;29.52;;;;;;;;;;5057323;28;20445;-70
2022/03/17 01:58:04;;;;;;;61.30;30.83;;;;;;;;;;5058316;28;20463;-70
2022/03/17 02:00:30;;;;;;;64.40;30.20;;;;;;;;;;5049313;28;20062;-70
2022/03/17 02:02:55;;;;;;;101.43;30.75;;;;;;;;;;5056142;28;20034;-69
2022/03/17 02:05:20;;;;;;;86.88;30.05;;;;;;;;;;5059938;28;20035;-69
2022/03/17 02:07:52;;;;;;;109.05;31.10;;;;;;;;;;5050333;28;20032;-69
2022/03/17 02:10:18;;;;;;;61.58;30.92;;;;;;;;;;5054900;28;20033;-68
2022/03/17 02:15:28;;;;;;;57.35;29.58;;;;;;;;;;5041481;28;20066;-70
2022/03/17 02:17:53;;;;;;;63.70;31.40;;;;;;;;;;5052551;28;20504;-70
2022/03/17 02:20:18;;;;;;;55.22;28.35;;;;;;;;;;5052745;28;20024;-69
2022/03/17 02:22:48;;;;;;;110.18;30.55;;;;;;;;;;5050117;28;20029;-70
2022/03/17 02:27:58;;;;;;;;;;;;;;;;;;5055281;28;20031;-70
2022/03/17 02:30:23;;;;;;;55.90;28.10;;;;;;;;;;5046857;28;19999;-70
2022/03/17 02:32:49;;;;;;;52.08;26.65;;;;;;;;;;5054363;28;20109;-70
2022/03/17 02:35:22;;;;;;;51.72;28.30;;;;;;;;;;5061188;28;20024;-70
2022/03/17 02:37:48;;;;;;;48.73;26.27;;;;;;;;;;5057848;28;20061;-69
2022/03/17 02:40:13;;;;;;;95.22;27.98;;;;;;;;;;5058708;28;20052;-70
2022/03/17 02:42:39;;;;;;;51.15;26.63;;;;;;;;;;5048353;28;20087;-70
2022/03/17 02:45:05;;;;;;;102.63;25.50;;;;;;;;;;5063744;28;20020;-69
2022/03/17 02:47:30;;;;;;;65.47;27.27;;;;;;;;;;5039079;28;20024;-70
2022/03/17 02:49:56;;;;;;;60.13;28.23;;;;;;;;;;5059349;28;20044;-70
2022/03/17 02:52:25;;;;;;;51.65;27.17;;;;;;;;;;5052016;28;20050;-70
2022/03/17 02:54:50;;;;;;;57.42;25.88;;;;;;;;;;5060175;28;20032;-70
2022/03/17 02:57:16;;;;;;;92.75;24.00;;;;;;;;;;5060820;28;20483;-70
2022/03/17 02:59:42;;;;;;;88.47;24.30;;;;;;;;;;5035063;28;20031;-70
2022/03/17 03:02:07;;;;;;;43.80;22.13;;;;;;;;;;5061816;28;20025;-70
2022/03/17 03:04:36;;;;;;;44.22;22.98;;;;;;;;;;5061442;28;20086;-70
2022/03/17 03:07:04;;;;;;;44.45;23.17;;;;;;;;;;5052177;28;20029;-70
2022/03/17 03:09:30;;;;;;;39.05;21.98;;;;;;;;;;5059744;28;20040;-69
2022/03/17 03:11:55;;;;;;;41.33;22.38;;;;;;;;;;5052652;28;20033;-70
2022/03/17 03:14:21;;;;;;;36.03;20.33;;;;;;;;;;5057434;28;20021;-69
2022/03/17 03:16:47;;;;;;;36.85;20.00;;;;;;;;;;5060907;28;20029;-69
2022/03/17 03:19:12;;;;;;;35.80;20.15;;;;;;;;;;5047279;28;20033;-69
2022/03/17 03:21:38;;;;;;;37.50;21.42;;;;;;;;;;5061541;28;20029;-70
2022/03/17 03:24:04;;;;;;;47.13;21.95;;;;;;;;;;5055607;28;20029;-72
2022/03/17 03:26:30;;;;;;;38.28;21.65;;;;;;;;;;5055214;28;20034;-71
2022/03/17 03:28:56;;;;;;;53.03;23.45;;;;;;;;;;5057308;28;20027;-71
2022/03/17 03:31:22;;;;;;;48.58;23.95;;;;;;;;;;5060959;28;20037;-70
2022/03/17 03:33:47;;;;;;;50.40;24.48;;;;;;;;;;5066219;28;20051;-69
2022/03/17 03:38:56;;;;;;;62.92;25.60;;;;;;;;;;5051627;28;20599;-72
2022/03/17 03:41:22;;;;;;;54.72;26.33;;;;;;;;;;5061969;28;20475;-71
2022/03/17 03:43:47;;;;;;;44.83;22.65;;;;;;;;;;5057402;28;20082;-72
2022/03/17 03:46:14;;;;;;;47.15;23.50;;;;;;;;;;5063521;28;20020;-70
2022/03/17 03:48:40;;;;;;;45.17;23.35;;;;;;;;;;5050968;28;20078;-69
2022/03/17 03:51:05;;;;;;;48.10;23.75;;;;;;;;;;5063818;28;20499;-70
2022/03/17 03:54:13;;;;;;;45.33;23.65;;;;;;;;;;5055444;28;20483;-69
2022/03/17 03:56:16;;;;;;;133.00;26.00;;;;;;;;;;5059322;28;20024;-70
2022/03/17 03:58:41;;;;;;;61.20;24.10;;;;;;;;;;5052218;28;20438;-69
2022/03/17 04:01:06;;;;;;;51.05;25.75;;;;;;;;;;5058388;28;20040;-70
2022/03/17 04:03:32;;;;;;;45.20;23.88;;;;;;;;;;5055041;28;20112;-70
2022/03/17 04:05:57;;;;;;;48.88;24.17;;;;;;;;;;5049834;28;20104;-69
2022/03/17 04:08:22;;;;;;;47.72;24.38;;;;;;;;;;5057997;28;20025;-70
2022/03/17 04:10:48;;;;;;;49.25;22.42;;;;;;;;;;5061242;28;20025;-70
2022/03/17 04:13:13;;;;;;;48.67;23.08;;;;;;;;;;5060848;28;20418;-70
2022/03/17 04:15:38;;;;;;;54.35;24.58;;;;;;;;;;5051040;28;20029;-70
2022/03/17 04:18:04;;;;;;;44.75;22.20;;;;;;;;;;5057807;28;20494;-69
2022/03/17 04:20:29;;;;;;;53.65;24.58;;;;;;;;;;5055736;28;20035;-69
2022/03/17 04:22:54;;;;;;;55.67;24.45;;;;;;;;;;5058771;28;20039;-70
2022/03/17 04:25:20;;;;;;;55.38;23.98;;;;;;;;;;5062709;28;20024;-70
2022/03/17 04:27:45;;;;;;;41.33;21.80;;;;;;;;;;5055195;28;20024;-70
2022/03/17 04:30:11;;;;;;;68.95;23.42;;;;;;;;;;5058826;28;20032;-70
2022/03/17 04:32:36;;;;;;;67.07;24.08;;;;;;;;;;5062654;28;20027;-70
2022/03/17 04:35:01;;;;;;;54.05;25.27;;;;;;;;;;5052658;28;20459;-70
2022/03/17 04:37:27;;;;;;;42.65;21.73;;;;;;;;;;5056366;28;20029;-70
2022/03/17 04:39:53;;;;;;;51.88;24.05;;;;;;;;;;5053323;28;20021;-70
2022/03/17 04:42:18;;;;;;;36.20;21.50;;;;;;;;;;5050867;28;20017;-70
2022/03/17 04:44:43;;;;;;;34.70;19.67;;;;;;;;;;5055223;28;20048;-69
2022/03/17 04:47:09;;;;;;;38.47;20.50;;;;;;;;;;5061775;28;20024;-69
2022/03/17 04:49:34;;;;;;;63.65;20.65;;;;;;;;;;5047784;28;20036;-69
2022/03/17 04:51:59;;;;;;;41.80;21.83;;;;;;;;;;5042308;28;20056;-71
2022/03/17 04:54:24;;;;;;;52.45;21.10;;;;;;;;;;5042240;28;20116;-70
2022/03/17 04:56:50;;;;;;;54.63;22.60;;;;;;;;;;5039725;28;20037;-73
2022/03/17 04:59:15;;;;;;;219.85;22.08;;;;;;;;;;5040735;28;20090;-73
2022/03/17 05:01:40;;;;;;;46.38;21.05;;;;;;;;;;5040627;28;20041;-70
2022/03/17 05:04:06;;;;;;;34.33;18.35;;;;;;;;;;5041846;28;20017;-71
2022/03/17 05:06:31;;;;;;;34.83;18.33;;;;;;;;;;5041889;28;20028;-71
2022/03/17 05:08:59;;;;;;;35.05;18.20;;;;;;;;;;5039820;28;20078;-70
2022/03/17 05:11:24;;;;;;;41.30;20.75;;;;;;;;;;5042747;28;20076;-70
2022/03/17 05:13:51;;;;;;;31.90;18.17;;;;;;;;;;5036299;28;20650;-71
2022/03/17 05:16:17;;;;;;;35.30;18.67;;;;;;;;;;5040066;28;20157;-73
2022/03/17 05:18:42;;;;;;;35.38;18.52;;;;;;;;;;5040281;28;20029;-73
2022/03/17 05:21:07;;;;;;;34.67;17.40;;;;;;;;;;5039755;28;20058;-72
2022/03/17 05:23:33;;;;;;;33.65;18.08;;;;;;;;;;5037143;28;20036;-71
2022/03/17 05:25:59;;;;;;;35.88;19.13;;;;;;;;;;5040859;28;20044;-72
2022/03/17 05:28:24;;;;;;;42.25;19.15;;;;;;;;;;5036156;28;20158;-70
2022/03/17 05:30:49;;;;;;;32.15;18.00;;;;;;;;;;5041367;28;20033;-71
2022/03/17 05:33:15;;;;;;;34.70;18.75;;;;;;;;;;5040024;28;20029;-71
2022/03/17 05:35:41;;;;;;;33.90;19.00;;;;;;;;;;5038598;28;20037;-72
2022/03/17 05:38:06;;;;;;;33.75;18.80;;;;;;;;;;5043363;28;20025;-72
2022/03/17 05:40:32;;;;;;;43.13;21.60;;;;;;;;;;5035464;28;20075;-72
2022/03/17 05:42:59;;;;;;;38.20;19.80;;;;;;;;;;5041748;28;20032;-70
2022/03/17 05:45:26;;;;;;;33.13;18.92;;;;;;;;;;5036827;28;20033;-72
2022/03/17 05:47:52;;;;;;;39.30;19.30;;;;;;;;;;5042305;28;20155;-70
2022/03/17 05:50:20;;;;;;;35.35;18.40;;;;;;;;;;5038181;28;20076;-71
2022/03/17 05:52:45;;;;;;;34.70;18.58;;;;;;;;;;5035106;28;20017;-72
2022/03/17 05:55:11;;;;;;;35.08;18.42;;;;;;;;;;5041228;28;20048;-71
2022/03/17 05:57:37;;;;;;;29.00;17.02;;;;;;;;;;5039013;28;20623;-71
2022/03/17 06:00:04;;;;;;;35.17;17.42;;;;;;;;;;5023728;28;20024;-71
2022/03/17 06:02:30;;;;;;;40.05;17.92;;;;;;;;;;5037807;28;20029;-72
2022/03/17 06:04:55;;;;;;;39.28;16.33;;;;;;;;;;5040981;28;20055;-72
2022/03/17 06:07:21;;;;;;;28.73;17.17;;;;;;;;;;5040831;28;20030;-71
2022/03/17 06:09:46;;;;;;;28.58;15.82;;;;;;;;;;5038988;28;20272;-70
2022/03/17 06:12:11;;;;;;;27.35;15.35;;;;;;;;;;5038391;28;20059;-72
2022/03/17 06:14:37;;;;;;;26.38;15.45;;;;;;;;;;5039919;28;20076;-70
2022/03/17 06:17:03;;;;;;;30.23;15.50;;;;;;;;;;5041274;28;20059;-72
2022/03/17 06:19:29;;;;;;;26.90;16.10;;;;;;;;;;5040426;28;20028;-72
2022/03/17 06:21:54;;;;;;;27.20;15.32;;;;;;;;;;5019332;28;20033;-71
2022/03/17 06:24:19;;;;;;;19.60;12.93;;;;;;;;;;5041173;28;20083;-69
2022/03/17 06:26:45;;;;;;;29.50;14.77;;;;;;;;;;5041089;28;20029;-71
2022/03/17 06:29:10;;;;;;;29.35;15.90;;;;;;;;;;5039411;28;20037;-71
2022/03/17 06:31:39;;;;;;;26.33;15.57;;;;;;;;;;5039294;28;20565;-71
2022/03/17 06:34:05;;;;;;;28.20;16.52;;;;;;;;;;5040909;28;20104;-70
2022/03/17 06:36:30;;;;;;;25.80;14.88;;;;;;;;;;5040875;28;20227;-71
2022/03/17 06:38:55;;;;;;;25.05;14.32;;;;;;;;;;5042244;28;20033;-72
2022/03/17 06:41:21;;;;;;;39.40;14.57;;;;;;;;;;5041011;28;20040;-69
2022/03/17 06:43:46;;;;;;;26.90;14.70;;;;;;;;;;5041719;28;20022;-71
2022/03/17 06:46:11;;;;;;;27.02;15.93;;;;;;;;;;5039871;28;20541;-71
2022/03/17 06:48:37;;;;;;;23.45;15.00;;;;;;;;;;5037861;28;20060;-70
2022/03/17 06:51:02;;;;;;;27.08;14.68;;;;;;;;;;5039695;28;20476;-70
2022/03/17 06:53:27;;;;;;;26.85;15.80;;;;;;;;;;5040010;28;20154;-69
2022/03/17 06:55:53;;;;;;;27.17;16.05;;;;;;;;;;5041421;28;20075;-71
2022/03/17 06:58:18;;;;;;;27.80;15.30;;;;;;;;;;5040375;28;20056;-70
2022/03/17 07:00:43;;;;;;;26.27;13.73;;;;;;;;;;5036712;28;20415;-71
2022/03/17 07:03:09;;;;;;;22.25;13.68;;;;;;;;;;5040096;28;20531;-70
2022/03/17 07:05:34;;;;;;;25.38;12.82;;;;;;;;;;5037891;28;20163;-71
2022/03/17 07:07:59;;;;;;;22.88;12.70;;;;;;;;;;5039780;28;20025;-69
2022/03/17 07:10:27;;;;;;;19.10;11.30;;;;;;;;;;5039318;28;20120;-70
2022/03/17 07:12:53;;;;;;;19.67;11.55;;;;;;;;;;5039415;28;20405;-69
2022/03/17 07:15:19;;;;;;;20.50;12.48;;;;;;;;;;5034557;28;20087;-71
2022/03/17 07:17:44;;;;;;;19.00;12.35;;;;;;;;;;5038783;28;20078;-71
2022/03/17 07:20:14;;;;;;;20.23;12.70;;;;;;;;;;5037063;28;20056;-71
2022/03/17 07:22:40;;;;;;;20.00;12.57;;;;;;;;;;5037853;28;20411;-71
2022/03/17 07:25:06;;;;;;;18.02;12.85;;;;;;;;;;5038580;28;20111;-70
2022/03/17 07:27:36;;;;;;;20.02;12.48;;;;;;;;;;5037530;28;20124;-70
2022/03/17 07:30:02;;;;;;;19.85;12.40;;;;;;;;;;5039775;28;20083;-71
2022/03/17 07:32:28;;;;;;;19.30;12.60;;;;;;;;;;5039629;28;20049;-70
2022/03/17 07:34:53;;;;;;;21.15;13.63;;;;;;;;;;5036397;28;20033;-72
2022/03/17 07:37:18;;;;;;;20.95;13.07;;;;;;;;;;5041385;28;20260;-71
2022/03/17 07:39:44;;;;;;;20.88;13.02;;;;;;;;;;5044580;28;20028;-72
2022/03/17 07:42:09;;;;;;;22.23;12.32;;;;;;;;;;5045083;28;20045;-71
2022/03/17 07:44:36;;;;;;;20.05;12.65;;;;;;;;;;5040943;28;20029;-71
2022/03/17 07:47:02;;;;;;;21.48;12.23;;;;;;;;;;5043151;28;20419;-71
2022/03/17 07:49:28;;;;;;;18.13;11.60;;;;;;;;;;5027317;28;20102;-71
2022/03/17 07:51:54;;;;;;;17.88;11.70;;;;;;;;;;5044311;28;20512;-70
2022/03/17 07:54:20;;;;;;;17.20;11.70;;;;;;;;;;5042855;28;20032;-70
2022/03/17 07:56:45;;;;;;;18.77;11.40;;;;;;;;;;5042009;28;20033;-71
2022/03/17 07:59:10;;;;;;;25.10;12.90;;;;;;;;;;5041447;28;20071;-71
2022/03/17 08:01:36;;;;;;;18.45;11.65;;;;;;;;;;5041735;28;20037;-71
2022/03/17 08:04:01;;;;;;;23.85;11.73;;;;;;;;;;5041436;28;20071;-71
2022/03/17 08:06:26;;;;;;;19.08;11.35;;;;;;;;;;5044960;28;20044;-70
2022/03/17 08:08:52;;;;;;;18.25;11.10;;;;;;;;;;5043110;28;20062;-71
2022/03/17 08:11:17;;;;;;;24.05;11.13;;;;;;;;;;5043638;28;20937;-71
2022/03/17 08:13:42;;;;;;;17.02;10.60;;;;;;;;;;5042577;28;20028;-71
2022/03/17 08:16:12;;;;;;;17.33;10.82;;;;;;;;;;5040379;28;20101;-71
2022/03/17 08:18:38;;;;;;;15.45;10.48;;;;;;;;;;5043665;28;20036;-71
2022/03/17 08:21:03;;;;;;;19.27;10.77;;;;;;;;;;5041788;28;20028;-70
2022/03/17 08:23:29;;;;;;;15.98;10.50;;;;;;;;;;5038958;28;20048;-71
2022/03/17 08:25:54;;;;;;;20.13;10.63;;;;;;;;;;5044043;28;20061;-70
2022/03/17 08:28:19;;;;;;;16.35;10.32;;;;;;;;;;5042472;28;20474;-71
2022/03/17 08:30:48;;;;;;;16.58;10.65;;;;;;;;;;5041702;28;20530;-71
2022/03/17 08:33:14;;;;;;;19.40;10.13;;;;;;;;;;5040305;28;20888;-70
2022/03/17 08:35:40;;;;;;;21.45;10.75;;;;;;;;;;5041839;28;20052;-71
2022/03/17 08:38:05;;;;;;;17.63;10.05;;;;;;;;;;5041816;28;20064;-71
2022/03/17 08:40:31;;;;;;;14.52;9.02;;;;;;;;;;5041329;28;20168;-71
2022/03/17 08:42:56;;;;;;;17.02;9.82;;;;;;;;;;5042293;28;20418;-71
2022/03/17 08:50:49;;;;;;;18.25;10.40;;;;;;;;;;5041657;28;20037;-71
2022/03/17 08:53:15;;;;;;;18.00;10.13;;;;;;;;;;5042461;28;20060;-71
2022/03/17 08:55:40;;;;;;;14.90;10.23;;;;;;;;;;5041927;28;20022;-70
2022/03/17 08:58:06;;;;;;;18.80;10.45;;;;;;;;;;5041126;28;20528;-70
2022/03/17 09:00:34;;;;;;;20.65;11.73;;;;;;;;;;5024149;28;20441;-71
2022/03/17 09:03:03;;;;;;;17.42;10.65;;;;;;;;;;5040319;28;20166;-71
2022/03/17 09:05:30;;;;;;;18.27;10.57;;;;;;;;;;5042491;28;20021;-70
2022/03/17 09:07:56;;;;;;;17.75;11.02;;;;;;;;;;5042047;28;20036;-70
2022/03/17 09:10:23;;;;;;;17.77;10.55;;;;;;;;;;5041862;28;20033;-71
2022/03/17 09:12:48;;;;;;;16.27;10.65;;;;;;;;;;5041804;28;20111;-71
2022/03/17 09:15:14;;;;;;;22.70;10.88;;;;;;;;;;5040134;28;20115;-71
2022/03/17 09:17:41;;;;;;;15.05;10.65;;;;;;;;;;5042974;28;20036;-71
2022/03/17 09:20:09;;;;;;;15.32;10.90;;;;;;;;;;5041641;28;20025;-70
2022/03/17 09:22:34;;;;;;;14.93;10.88;;;;;;;;;;5041244;28;20368;-70
2022/03/17 09:25:00;;;;;;;16.77;10.45;;;;;;;;;;5041142;28;20032;-70
2022/03/17 09:27:28;;;;;;;15.10;10.10;;;;;;;;;;5041131;28;20032;-71
2022/03/17 09:29:53;;;;;;;15.98;10.85;;;;;;;;;;5042455;28;20036;-71
2022/03/17 09:32:20;;;;;;;14.38;10.57;;;;;;;;;;5039304;28;20406;-70
2022/03/17 09:34:46;;;;;;;17.05;11.18;;;;;;;;;;5041581;28;20037;-71
2022/03/17 09:37:11;;;;;;;14.82;11.13;;;;;;;;;;5041094;28;20021;-71
2022/03/17 09:39:45;;;;;;;20.98;11.25;;;;;;;;;;5041773;28;20037;-69
2022/03/17 09:42:17;;;;;;;19.05;10.80;;;;;;;;;;5043054;28;20505;-71
2022/03/17 09:44:46;;;;;;;13.63;10.60;;;;;;;;;;5024310;28;20904;-71
2022/03/17 09:47:11;;;;;;;19.70;12.13;;;;;;;;;;5040101;28;20557;-71
2022/03/17 09:49:37;;;;;;;16.73;11.70;;;;;;;;;;5037567;28;20036;-70
2022/03/17 09:52:11;;;;;;;16.55;11.10;;;;;;;;;;5027599;28;20472;-71
2022/03/17 09:54:37;;;;;;;15.77;11.73;;;;;;;;;;5022424;28;20024;-71
2022/03/17 09:57:03;;;;;;;15.02;9.85;;;;;;;;;;5041927;28;20021;-71
2022/03/17 09:59:28;;;;;;;19.70;10.82;;;;;;;;;;5040059;28;20096;-71
2022/03/17 10:01:53;;;;;;;15.07;10.60;;;;;;;;;;5039993;28;20119;-71
2022/03/17 10:04:19;;;;;;;14.57;10.65;;;;;;;;;;5038865;28;20584;-71
2022/03/17 10:06:46;;;;;;;17.55;11.07;;;;;;;;;;5040650;28;20462;-70
2022/03/17 10:09:11;;;;;;;16.33;10.55;;;;;;;;;;5041107;28;20503;-71
2022/03/17 10:11:37;;;;;;;16.92;11.75;;;;;;;;;;5041765;28;20063;-70
2022/03/17 10:14:05;;;;;;;17.27;11.52;;;;;;;;;;5042278;28;20013;-70
2022/03/17 10:16:30;;;;;;;15.75;11.52;;;;;;;;;;5023843;28;20484;-70
2022/03/17 10:19:00;;;;;;;19.90;11.65;;;;;;;;;;5042408;28;20032;-71
2022/03/17 10:21:26;;;;;;;15.93;11.43;;;;;;;;;;5024213;28;20017;-70
2022/03/17 10:23:59;;;;;;;16.13;11.70;;;;;;;;;;5042285;28;20467;-70
2022/03/17 10:26:47;;;;;;;19.92;11.73;;;;;;;;;;5040273;28;20234;-71
2022/03/17 10:29:15;;;;;;;19.38;11.98;;;;;;;;;;5042453;28;20102;-70
2022/03/17 10:31:59;;;;;;;19.92;12.32;;;;;;;;;;5041491;28;20147;-70
2022/03/17 10:34:48;;;;;;;15.85;11.75;;;;;;;;;;5042080;28;20387;-70
2022/03/17 10:37:15;;;;;;;17.85;11.55;;;;;;;;;;5034212;28;20029;-71
2022/03/17 10:39:44;;;;;;;18.55;12.63;;;;;;;;;;5040069;28;20030;-71
2022/03/17 10:42:13;;;;;;;18.17;12.77;;;;;;;;;;5041451;28;20035;-71
2022/03/17 10:44:40;;;;;;;18.88;12.20;;;;;;;;;;5040037;28;20033;-70
2022/03/17 10:47:05;;;;;;;18.23;11.55;;;;;;;;;;5039104;28;20025;-70
2022/03/17 10:49:31;;;;;;;22.88;12.98;;;;;;;;;;5040894;28;20396;-70
2022/03/17 10:51:57;;;;;;;20.25;12.63;;;;;;;;;;5039156;28;20132;-71
2022/03/17 10:54:23;;;;;;;18.75;12.75;;;;;;;;;;5041058;28;20459;-70
2022/03/17 10:57:05;;;;;;;27.83;13.43;;;;;;;;;;5022647;28;20099;-71
2022/03/17 10:59:47;;;;;;;22.83;13.85;;;;;;;;;;5040868;28;20058;-71
2022/03/17 11:02:13;;;;;;;21.17;14.07;;;;;;;;;;5040050;28;20060;-70
2022/03/17 11:04:40;;;;;;;20.45;13.90;;;;;;;;;;5038878;28;20608;-70
2022/03/17 11:07:13;;;;;;;23.05;14.70;;;;;;;;;;5044230;28;20029;-70
2022/03/17 11:09:39;;;;;;;22.58;14.63;;;;;;;;;;5044068;28;20431;-71
2022/03/17 11:12:07;;;;;;;25.75;14.38;;;;;;;;;;5044407;28;20021;-70
2022/03/17 11:14:32;;;;;;;25.75;14.45;;;;;;;;;;5043144;28;20021;-71
2022/03/17 11:16:58;;;;;;;21.77;13.85;;;;;;;;;;5041497;28;20052;-70
2022/03/17 11:19:23;;;;;;;20.08;13.82;;;;;;;;;;5042751;28;20032;-70
2022/03/17 11:21:49;;;;;;;23.17;14.32;;;;;;;;;;5042075;28;20029;-71
2022/03/17 11:24:21;;;;;;;22.67;13.45;;;;;;;;;;5026753;28;20025;-71
2022/03/17 11:26:46;;;;;;;21.33;13.95;;;;;;;;;;5041821;28;20025;-71
2022/03/17 11:29:13;;;;;;;20.38;14.07;;;;;;;;;;5042075;28;20028;-70
2022/03/17 11:31:52;;;;;;;19.98;13.85;;;;;;;;;;5044254;28;20029;-70
2022/03/17 11:34:48;;;;;;;23.27;14.35;;;;;;;;;;5058936;28;20011;-72
2022/03/17 11:37:15;;;;;;;23.17;14.02;;;;;;;;;;5049313;28;20044;-72
2022/03/17 11:39:50;;;;;;;22.45;14.80;;;;;;;;;;5042843;28;20032;-72
2022/03/17 11:42:34;;;;;;;18.63;13.55;;;;;;;;;;5044001;28;20075;-72
2022/03/17 11:45:10;;;;;;;23.50;13.95;;;;;;;;;;5043076;28;20026;-73
2022/03/17 11:47:36;;;;;;;21.50;14.10;;;;;;;;;;5043565;28;20035;-69
2022/03/17 11:50:20;;;;;;;22.98;15.10;;;;;;;;;;5043155;28;20487;-73
2022/03/17 11:52:50;;;;;;;24.17;15.80;;;;;;;;;;5043129;28;20191;-72
2022/03/17 11:55:47;;;;;;;22.83;14.70;;;;;;;;;;5041848;28;20029;-72
2022/03/17 11:58:46;;;;;;;21.92;14.98;;;;;;;;;;5043801;28;20021;-73
2022/03/17 12:01:27;;;;;;;23.15;15.25;;;;;;;;;;5042443;28;20144;-71
2022/03/17 12:04:05;;;;;;;25.10;15.63;;;;;;;;;;5043191;28;20021;-70
2022/03/17 12:06:34;;;;;;;23.58;14.15;;;;;;;;;;5042837;28;20495;-72
2022/03/17 12:09:07;;;;;;;22.90;15.32;;;;;;;;;;5026431;28;20024;-71
2022/03/17 12:11:47;;;;;;;21.95;15.30;;;;;;;;;;5041542;28;20395;-73
2022/03/17 12:14:18;;;;;;;24.38;15.52;;;;;;;;;;5041907;28;20100;-71
2022/03/17 12:16:43;;;;;;;25.02;16.15;;;;;;;;;;5041330;28;20190;-72
2022/03/17 12:19:09;;;;;;;20.60;14.23;;;;;;;;;;5042345;28;20547;-71
2022/03/17 12:21:57;;;;;;;25.33;15.57;;;;;;;;;;5042804;28;20479;-73
2022/03/17 12:25:01;;;;;;;23.05;15.32;;;;;;;;;;5036372;28;20075;-71
2022/03/17 12:27:31;;;;;;;26.77;16.15;;;;;;;;;;5020707;28;20060;-72
2022/03/17 12:30:06;;;;;;;22.27;15.55;;;;;;;;;;5041374;28;20459;-72
2022/03/17 12:32:34;;;;;;;26.50;15.63;;;;;;;;;;5041777;28;20055;-71
2022/03/17 12:35:00;;;;;;;22.05;15.18;;;;;;;;;;5043024;28;20021;-72
2022/03/17 12:37:27;;;;;;;23.50;15.88;;;;;;;;;;5044557;28;20077;-72
2022/03/17 12:39:53;;;;;;;22.55;15.32;;;;;;;;;;5030731;28;20462;-71
2022/03/17 12:42:26;;;;;;;24.10;15.85;;;;;;;;;;5040370;28;20783;-72
2022/03/17 12:45:05;;;;;;;23.95;15.90;;;;;;;;;;5040875;28;20084;-72
2022/03/17 12:47:35;;;;;;;22.85;16.17;;;;;;;;;;5039984;28;20033;-72
2022/03/17 12:50:03;;;;;;;24.08;16.80;;;;;;;;;;5042300;28;20103;-72
2022/03/17 12:52:30;;;;;;;23.17;16.38;;;;;;;;;;5042379;28;20052;-72
2022/03/17 12:54:59;;;;;;;23.60;16.33;;;;;;;;;;5041526;28;20447;-72
2022/03/17 12:57:26;;;;;;;25.65;15.73;;;;;;;;;;5042948;28;20475;-71
2022/03/17 12:59:51;;;;;;;23.15;16.15;;;;;;;;;;5041369;28;20036;-71
2022/03/17 13:02:18;;;;;;;24.23;15.85;;;;;;;;;;5040481;28;20037;-71
2022/03/17 13:04:44;;;;;;;27.00;16.83;;;;;;;;;;5040050;28;20456;-72
2022/03/17 13:07:10;;;;;;;24.35;16.38;;;;;;;;;;5041571;28;20108;-71
2022/03/17 13:09:36;;;;;;;26.33;17.27;;;;;;;;;;5040460;28;20121;-72
2022/03/17 13:14:47;;;;;;;28.67;17.90;;;;;;;;;;5046433;28;20606;-71
2022/03/17 13:17:13;;;;;;;24.67;17.15;;;;;;;;;;5040601;28;20028;-71
2022/03/17 13:19:49;;;;;;;25.77;16.17;;;;;;;;;;5043218;28;20033;-71
2022/03/17 13:22:20;;;;;;;26.98;17.65;;;;;;;;;;5041351;28;20029;-72
2022/03/17 13:25:08;;;;;;;25.13;17.15;;;;;;;;;;5025294;28;20041;-72
2022/03/17 13:27:34;;;;;;;30.33;17.92;;;;;;;;;;5043260;28;20032;-72
2022/03/17 13:30:02;;;;;;;24.27;16.90;;;;;;;;;;5039378;28;20112;-71
2022/03/17 13:32:27;;;;;;;29.70;17.23;;;;;;;;;;5038930;28;20546;-71
2022/03/17 13:35:04;;;;;;;24.92;17.48;;;;;;;;;;5043064;28;20119;-72
2022/03/17 13:37:36;;;;;;;27.08;17.85;;;;;;;;;;5039723;28;20037;-72
2022/03/17 13:40:03;;;;;;;26.35;18.48;;;;;;;;;;5025963;28;20037;-70
2022/03/17 13:42:28;;;;;;;26.63;18.20;;;;;;;;;;5042609;28;20040;-71
2022/03/17 13:44:55;;;;;;;30.17;18.00;;;;;;;;;;5041119;28;20037;-70
2022/03/17 13:47:28;;;;;;;29.83;18.63;;;;;;;;;;5041611;28;20024;-72
2022/03/17 13:50:10;;;;;;;32.35;20.10;;;;;;;;;;5040959;28;20608;-72
2022/03/17 13:52:35;;;;;;;30.25;19.25;;;;;;;;;;5041157;28;20024;-72
2022/03/17 13:55:01;;;;;;;35.05;18.80;;;;;;;;;;5041720;28;20443;-70
2022/03/17 13:57:26;;;;;;;38.17;19.83;;;;;;;;;;5042660;28;20012;-70
2022/03/17 13:59:51;;;;;;;34.42;20.40;;;;;;;;;;5040826;28;20051;-71
2022/03/17 14:02:21;;;;;;;30.88;19.25;;;;;;;;;;5040889;28;20634;-71
2022/03/17 14:04:56;;;;;;;32.20;19.73;;;;;;;;;;5024331;28;20067;-71
2022/03/17 14:07:24;;;;;;;35.65;21.10;;;;;;;;;;5023912;28;20040;-70
2022/03/17 14:09:50;;;;;;;33.72;20.48;;;;;;;;;;5042872;28;20022;-71
2022/03/17 14:12:15;;;;;;;37.90;20.77;;;;;;;;;;5042407;28;20044;-71
2022/03/17 14:14:40;;;;;;;34.40;21.50;;;;;;;;;;5023217;28;20112;-71
2022/03/17 14:17:10;;;;;;;30.33;19.83;;;;;;;;;;5042431;28;20119;-70
2022/03/17 14:19:35;;;;;;;43.75;21.13;;;;;;;;;;5043353;28;20027;-71
2022/03/17 14:24:44;;;;;;;41.27;23.13;;;;;;;;;;5040198;28;20028;-71
2022/03/17 14:27:10;;;;;;;42.08;24.13;;;;;;;;;;5042348;28;20258;-71
2022/03/17 14:29:35;;;;;;;45.78;24.55;;;;;;;;;;5041703;28;20506;-70
2022/03/17 14:32:05;;;;;;;37.05;23.83;;;;;;;;;;5041642;28;20480;-71
2022/03/17 14:34:30;;;;;;;41.65;24.23;;;;;;;;;;5040026;28;20016;-71
2022/03/17 14:36:56;;;;;;;40.00;24.10;;;;;;;;;;5040303;28;20047;-71
2022/03/17 14:39:21;;;;;;;41.72;24.85;;;;;;;;;;5041682;28;20037;-70